• Join FlightAware (Why Join?)
  • Login
  • US Flag 
09:43PM EDT


 

Airport Tracker/Info


-or-


 

Live Flight TrackerFlight Track Log ✈ JBU33 ✈ 15-Aug-2013 ✈ KBTV - KJFK

Flight Track Log - Related Links

Times and Time Zones

All times are in EDT time to prevent confusion due to time zone crossing. See the JBU33 flight status page for this flight to view local times or setup timezone preferences in your user account.

Time Position Orientation Groundspeed Altitude Reporting Facility
EDT Latitude Longitude Course Direction KTS MPH feet Rate Location/Type
01:14PM 44.2819 -73.1853 196° South 257 296 8,700  Level Boston Center
01:15PM 44.0712 -73.2983 195° South  Level FlightAware Approximate
01:15PM 44.2006 -73.1728 174° South 278 320 10,800  Level Boston Center
01:16PM 43.9912 -73.3252 194° South  Level FlightAware Approximate
01:16PM 44.1008 -73.1569 173° South 334 384 13,400  Level Boston Center
01:17PM 43.9365 -73.3434 193° South  Level FlightAware Approximate
01:17PM 44.0194 -73.1417 172° South 361 415 15,700  Level Boston Center
01:18PM 43.8821 -73.3639 196° South  Level FlightAware Approximate
01:19PM 43.8280 -73.3856 196° South  Level FlightAware Approximate
01:19PM 43.8069 -73.1764 187° South 374 430 22,000  Level Boston Center
01:20PM 43.7150 -73.2069 194° South 351 404 23,800 960 Climbing Boston Center
01:21PM 43.6083 -73.2372 192° South 365 420 24,000 660 Climbing Boston Center
01:22PM 43.4914 -73.2728 192° South 401 461 25,200 960 Climbing Boston Center
01:23PM 43.3744 -73.3114 193° South 428 493 26,000 360 Climbing Boston Center
01:24PM 43.2533 -73.3494 193° South 440 506 26,000  Level Boston Center
01:25PM 43.1197 -73.3872 192° South 445 512 26,000  Level Boston Center
01:26PM 43.0006 -73.4222 192° South 452 520 26,000  Level Boston Center
01:27PM 42.8794 -73.4600 193° South 447 514 26,000  Level Boston Center
01:28PM 42.7728 -73.4981 195° South 447 514 26,000  Level Boston Center
01:29PM 42.6514 -73.5325 192° South 447 514 26,000  Level Boston Center
01:30PM 42.5322 -73.5700 193° South 447 514 26,000  Level Boston Center
01:31PM 42.4111 -73.6072 193° South 447 514 26,000  Level Boston Center
01:32PM 42.2942 -73.6303 188° South 447 514 26,000  Level Boston Center
01:33PM 42.1728 -73.6700 194° South 447 514 26,000  Level Boston Center
01:34PM 42.0494 -73.7150 195° South 447 514 26,000  Level Boston Center
01:35PM 41.9281 -73.7489 192° South 453 521 26,000 -840 Level Boston Center
01:37PM 41.6642 -73.8756 200° South 436 502 23,300 -1,440 Descending New York Center
01:38PM 41.5667 -73.9431 207° Southwest 416 479 21,700 -1,680 Descending New York Center
01:39PM 41.4669 -74.0103 207° Southwest 410 472 20,100 -900 Descending New York Center
01:40PM 41.3650 -74.0828 208° Southwest 415 478 20,000 -60 Descending New York Center
01:41PM 41.2647 -74.1689 213° Southwest 426 490 20,000 -60 Level New York Center
01:42PM 41.1753 -74.2414 211° Southwest 431 496 19,900 -540 Descending New York Center
01:43PM 41.0642 -74.2606 187° South 409 471 19,000 -480 Descending New York Center
01:44PM 40.9522 -74.1722 149° Southeast 390 449 19,000  Level New York Center
01:45PM 40.8903 -74.0842 133° Southeast 375 432 19,000  Level New York Center
01:46PM 40.8289 -73.9661 124° Southeast 359 413 19,000 -600 Level New York Center
01:47PM 40.7819 -73.8486 118° Southeast 359 413 17,900 -1,500 Descending New York Center
01:48PM 40.7433 -73.7319 114° Southeast 354 407 16,100 -1,980 Descending New York Center
01:49PM 40.6764 -73.6606 141° Southeast 298 343 14,000 -2,220 Descending New York Center
01:50PM 40.5917 -73.6297 165° South 308 354 11,700 -2,100 Descending New York Center
01:51PM 40.5228 -73.6378 185° South 303 349 9,900 -2,100 Descending New York Center
01:52PM 40.4425 -73.6808 202° Southwest 283 326 7,600 -2,220 Descending New York Center
01:53PM 40.3811 -73.7192 205° Southwest 283 326 5,500 -1,740 Descending New York Center
01:54PM 40.3642 -73.8108 256° West 243 280 4,200 -780 Descending New York Center
01:55PM 40.3789 -73.8825 285° West 234 269 4,000 -480 Descending New York Center
01:56PM 40.4106 -73.9492 302° West 207 238 3,300 -540 Descending New York Center
01:57PM 40.4492 -73.9836 326° Northwest 190 219 3,000 -180 Descending New York Center
01:58PM 40.5056 -73.9808 North 174 200 3,000 -300 Level New York Center
01:59PM 40.5667 -73.9333 31° Northeast 186 214 2,300 -660 Descending New York TRACON
02:00PM 40.6167 -73.9000 27° Northeast 188 216 1,500 -600 Descending New York TRACON
02:01PM 40.6500 -73.8500 49° Northeast 164 189 1,100 -540 Descending New York TRACON
02:02PM 40.6667 -73.8167 57° Northeast 145 167 500 -600 Descending New York TRACON